Time;durP1;ratioP1;P1;durP2;ratioP2;P2;SDS_P1;SDS_P2;PMS_P1;PMS_P2;Temp;Humidity;BMP_temperature;BMP_pressure;BME280_temperature;BME280_humidity;BME280_pressure;Samples;Min_cycle;Max_cycle;Signal;HPM_P1;HPM_P2
2022/03/20 00:00:13;;;;;;;16.13;12.07;;;;;;;1.60;82.53;102617.28;5052933;28;20198;-73
2022/03/20 00:02:39;;;;;;;14.23;11.67;;;;;;;1.58;82.94;102613.94;5053056;28;20178;-73
2022/03/20 00:05:05;;;;;;;18.17;12.77;;;;;;;1.56;82.94;102613.31;5052745;28;20198;-73
2022/03/20 00:07:33;;;;;;;15.40;13.80;;;;;;;1.49;83.26;102607.06;5052908;28;20809;-73
2022/03/20 00:09:58;;;;;;;17.70;12.43;;;;;;;1.51;83.33;102604.16;5052743;28;20167;-73
2022/03/20 00:12:24;;;;;;;14.07;12.70;;;;;;;1.52;83.11;102612.03;5053055;28;20530;-73
2022/03/20 00:14:50;;;;;;;12.30;10.30;;;;;;;1.51;83.08;102601.47;5034680;28;20228;-73
2022/03/20 00:17:16;;;;;;;15.60;11.67;;;;;;;1.49;83.04;102596.28;5052532;28;20198;-73
2022/03/20 00:19:41;;;;;;;21.07;14.03;;;;;;;1.43;83.19;102588.97;5052588;28;20174;-74
2022/03/20 00:22:07;;;;;;;24.07;13.43;;;;;;;1.44;82.85;102596.03;5052883;28;20171;-76
2022/03/20 00:24:34;;;;;;;14.77;12.07;;;;;;;1.38;83.12;102592.28;5052538;28;20211;-73
2022/03/20 00:27:00;;;;;;;17.27;12.57;;;;;;;1.39;83.35;102585.84;5052373;28;20168;-73
2022/03/20 00:29:27;;;;;;;14.50;11.80;;;;;;;1.38;82.88;102586.88;5051272;28;20175;-72
2022/03/20 00:31:53;;;;;;;16.20;12.70;;;;;;;1.40;82.81;102579.44;5052255;28;20179;-74
2022/03/20 00:34:19;;;;;;;21.07;13.07;;;;;;;1.38;82.85;102573.44;5052185;28;20254;-73
2022/03/20 00:36:45;;;;;;;16.33;12.53;;;;;;;1.43;82.55;102570.13;5052211;28;20250;-73
2022/03/20 00:39:10;;;;;;;17.40;11.67;;;;;;;1.52;82.27;102557.34;5052302;28;20254;-74
2022/03/20 00:41:35;;;;;;;17.47;10.17;;;;;;;1.53;81.69;102559.84;5052192;28;20521;-73
2022/03/20 00:44:01;;;;;;;14.63;13.13;;;;;;;1.56;81.25;102564.00;5052302;28;20460;-74
2022/03/20 00:46:27;;;;;;;15.57;12.13;;;;;;;1.55;80.82;102565.84;5052263;28;20187;-76
2022/03/20 00:48:53;;;;;;;14.77;12.57;;;;;;;1.52;80.63;102554.66;5052236;28;20179;-74
2022/03/20 00:51:18;;;;;;;16.23;12.60;;;;;;;1.52;80.19;102551.97;5052157;28;20181;-72
2022/03/20 00:53:44;;;;;;;16.63;11.73;;;;;;;1.49;80.19;102555.88;5052100;28;20207;-72
2022/03/20 00:56:09;;;;;;;15.80;13.97;;;;;;;1.46;79.29;102551.72;5052256;28;20180;-72
2022/03/20 00:58:34;;;;;;;17.03;12.63;;;;;;;1.44;79.19;102551.06;5052688;28;20186;-72
2022/03/20 01:01:00;;;;;;;13.97;12.00;;;;;;;1.39;79.21;102547.31;5055259;28;20232;-73
2022/03/20 01:03:25;;;;;;;15.67;13.77;;;;;;;1.34;79.43;102544.41;5054583;28;20183;-72
2022/03/20 01:05:51;;;;;;;16.10;12.27;;;;;;;1.33;79.43;102542.75;5052304;28;20179;-72
2022/03/20 01:08:18;;;;;;;12.97;10.60;;;;;;;1.28;79.18;102545.19;5051853;28;20175;-72
2022/03/20 01:10:44;;;;;;;13.73;11.57;;;;;;;1.26;79.36;102536.47;5052521;28;20650;-73
2022/03/20 01:13:09;;;;;;;17.27;11.97;;;;;;;1.24;79.59;102542.06;5051290;28;20465;-72
2022/03/20 01:15:34;;;;;;;17.00;12.00;;;;;;;1.24;78.68;102547.44;5051667;28;20214;-73
2022/03/20 01:18:00;;;;;;;15.50;11.53;;;;;;;1.17;78.89;102539.34;5051314;28;20171;-72
2022/03/20 01:20:25;;;;;;;15.60;10.07;;;;;;;1.08;79.43;102537.00;5050992;28;20254;-73
2022/03/20 01:22:52;;;;;;;18.60;12.17;;;;;;;1.06;79.55;102534.50;5051653;28;20205;-72
2022/03/20 01:25:18;;;;;;;14.27;11.80;;;;;;;1.08;79.53;102535.13;5033474;28;20181;-72
2022/03/20 01:27:44;;;;;;;11.67;10.53;;;;;;;1.06;79.21;102536.34;5051342;28;20532;-73
2022/03/20 01:30:09;;;;;;;18.93;12.63;;;;;;;1.00;78.89;102526.34;5051285;28;20167;-72
2022/03/20 01:32:35;;;;;;;13.37;11.90;;;;;;;0.99;78.89;102524.69;5051203;28;20240;-72
2022/03/20 01:35:01;;;;;;;14.90;10.93;;;;;;;0.95;79.37;102518.06;5051308;28;20546;-72
2022/03/20 01:37:26;;;;;;;14.20;12.70;;;;;;;0.95;79.27;102516.19;5050769;28;20559;-72
2022/03/20 01:39:53;;;;;;;10.93;9.83;;;;;;;0.88;79.28;102502.72;5051126;28;20574;-72
2022/03/20 01:42:19;;;;;;;14.70;12.20;;;;;;;0.86;79.56;102498.53;5050813;28;20229;-72
2022/03/20 01:44:46;;;;;;;12.77;11.33;;;;;;;0.83;79.18;102501.63;5051000;28;20241;-72
2022/03/20 01:47:11;;;;;;;13.50;12.17;;;;;;;0.75;80.20;102499.09;5050849;28;20623;-73
2022/03/20 01:49:37;;;;;;;14.13;12.13;;;;;;;0.70;80.43;102490.75;5051175;28;20471;-72
2022/03/20 01:52:13;;;;;;;13.23;11.93;;;;;;;0.67;80.83;102486.59;5050907;28;20175;-72
2022/03/20 01:54:47;;;;;;;14.50;12.97;;;;;;;0.68;80.81;102492.81;5050861;28;20162;-72
2022/03/20 01:57:21;;;;;;;16.43;12.47;;;;;;;0.64;80.57;102483.47;5050700;28;20184;-72
2022/03/20 01:59:47;;;;;;;17.03;12.17;;;;;;;0.65;80.90;102474.38;5050723;28;20168;-73
2022/03/20 02:02:12;;;;;;;15.90;11.90;;;;;;;0.65;81.11;102482.44;5050497;28;20448;-73
2022/03/20 02:04:39;;;;;;;14.90;11.43;;;;;;;0.65;80.87;102479.75;5050492;28;20175;-73
2022/03/20 02:07:06;;;;;;;16.17;13.47;;;;;;;0.65;80.75;102483.28;5050585;28;20671;-72
2022/03/20 02:09:32;;;;;;;16.37;13.00;;;;;;;0.64;80.08;102478.09;5050735;28;20450;-72
2022/03/20 02:11:59;;;;;;;14.00;11.87;;;;;;;0.61;79.98;102482.00;5050905;28;20213;-72
2022/03/20 02:14:25;;;;;;;17.33;11.90;;;;;;;0.58;79.69;102474.34;5050811;28;20214;-73
2022/03/20 02:16:51;;;;;;;18.77;11.43;;;;;;;0.59;79.51;102467.94;5050507;28;20508;-73
2022/03/20 02:19:16;;;;;;;18.83;14.10;;;;;;;0.58;79.23;102468.97;5050243;28;20254;-72
2022/03/20 02:21:46;;;;;;;15.40;13.47;;;;;;;0.57;78.89;102468.09;5050798;28;20536;-72
2022/03/20 02:24:30;;;;;;;15.33;11.90;;;;;;;0.54;78.95;102462.28;5050731;28;20484;-73
2022/03/20 02:27:07;;;;;;;12.37;11.07;;;;;;;0.57;78.07;102464.59;5050173;28;20179;-73
2022/03/20 02:29:33;;;;;;;15.77;12.43;;;;;;;0.70;78.26;102471.91;5034078;28;20282;-72
2022/03/20 02:31:59;;;;;;;17.67;12.97;;;;;;;0.73;77.82;102458.09;5050826;28;20952;-71
2022/03/20 02:34:28;;;;;;;13.27;11.33;;;;;;;0.69;78.09;102459.50;5050991;28;20171;-72
2022/03/20 02:36:55;;;;;;;12.03;10.03;;;;;;;0.66;77.84;102460.72;5050831;28;20182;-73
2022/03/20 02:39:20;;;;;;;12.60;11.30;;;;;;;0.48;78.31;102465.78;5050855;28;20175;-73
2022/03/20 02:41:47;;;;;;;14.20;12.63;;;;;;;0.32;79.07;102466.06;5051194;28;20563;-72
2022/03/20 02:44:13;;;;;;;15.17;11.80;;;;;;;0.33;79.45;102465.84;5050835;28;20647;-72
2022/03/20 02:46:38;;;;;;;15.90;12.27;;;;;;;0.09;78.75;102450.13;5050702;28;20429;-72
2022/03/20 02:49:07;;;;;;;15.53;13.53;;;;;;;0.06;77.96;102448.66;5050805;28;20232;-72
2022/03/20 02:51:32;;;;;;;19.33;11.07;;;;;;;0.11;76.93;102453.44;5050528;28;20570;-72
2022/03/20 02:53:58;;;;;;;14.63;12.97;;;;;;;0.11;77.05;102456.13;5053106;28;20202;-72
2022/03/20 02:56:27;;;;;;;13.63;11.77;;;;;;;0.26;76.52;102455.03;5054630;28;20175;-73
2022/03/20 02:58:53;;;;;;;14.30;12.67;;;;;;;0.38;76.22;102463.41;5054292;28;20266;-72
2022/03/20 03:01:18;;;;;;;13.00;11.77;;;;;;;0.41;75.72;102463.00;5054565;28;20278;-73
2022/03/20 03:03:45;;;;;;;12.03;10.07;;;;;;;0.56;75.98;102457.53;5054506;28;20225;-72
2022/03/20 03:06:11;;;;;;;15.73;9.40;;;;;;;0.45;75.41;102456.25;5054426;28;20631;-72
2022/03/20 03:11:21;;;;;;;11.90;10.70;;;;;;;0.20;77.29;102446.91;5054740;28;20811;-71
2022/03/20 03:13:47;;;;;;;16.00;11.27;;;;;;;0.27;77.43;102448.63;5054015;28;20302;-72
2022/03/20 03:16:15;;;;;;;14.13;10.70;;;;;;;0.27;77.53;102451.31;5053990;28;20600;-74
2022/03/20 03:18:45;;;;;;;20.37;12.00;;;;;;;-0.04;78.02;102438.22;5054109;28;20428;-72
2022/03/20 03:21:16;;;;;;;17.77;12.60;;;;;;;-0.12;79.08;102434.84;5054403;28;20513;-72
2022/03/20 03:23:42;;;;;;;11.43;9.50;;;;;;;0.02;79.33;102436.63;5054252;28;20202;-74
2022/03/20 03:26:08;;;;;;;13.53;10.90;;;;;;;0.02;79.72;102433.13;5054015;28;20195;-72
2022/03/20 03:28:34;;;;;;;13.03;11.53;;;;;;;-0.03;79.19;102428.28;5053604;28;20726;-73
2022/03/20 03:31:05;;;;;;;20.43;12.03;;;;;;;-0.02;79.76;102427.28;5053934;28;20284;-72
2022/03/20 03:33:31;;;;;;;13.10;11.17;;;;;;;-0.08;80.08;102414.63;5035833;28;20736;-72
2022/03/20 03:35:57;;;;;;;13.07;11.73;;;;;;;-0.13;79.41;102425.13;5053942;28;20422;-72
2022/03/20 03:38:30;;;;;;;15.60;12.10;;;;;;;-0.09;79.71;102412.97;5053513;28;20180;-73
2022/03/20 03:40:56;;;;;;;18.27;12.23;;;;;;;-0.29;78.78;102410.06;5053557;28;20509;-72
2022/03/20 03:43:22;;;;;;;21.33;11.67;;;;;;;-0.30;79.74;102416.44;5053643;28;20179;-72
2022/03/20 03:45:48;;;;;;;15.33;11.43;;;;;;;-0.44;78.19;102409.28;5053939;28;20179;-73
2022/03/20 03:48:14;;;;;;;12.97;11.67;;;;;;;-0.52;78.88;102409.41;5053825;28;20270;-72
2022/03/20 03:50:42;;;;;;;14.33;11.33;;;;;;;-0.44;78.56;102407.41;5053593;28;20186;-73
2022/03/20 03:53:10;;;;;;;16.97;13.33;;;;;;;-0.53;78.60;102402.38;5053508;28;20210;-74
2022/03/20 03:55:37;;;;;;;17.37;12.63;;;;;;;-0.54;78.81;102392.66;5053510;28;20429;-73
2022/03/20 03:58:03;;;;;;;14.87;11.83;;;;;;;-0.58;78.83;102392.19;5053233;28;20442;-72
2022/03/20 04:00:32;;;;;;;17.20;12.93;;;;;;;-0.52;78.54;102396.81;5053413;28;20449;-72
2022/03/20 04:02:58;;;;;;;13.37;12.00;;;;;;;-0.49;78.00;102398.28;5053057;28;20749;-72
2022/03/20 04:05:24;;;;;;;14.97;12.03;;;;;;;-0.46;77.28;102397.91;5052784;28;20422;-73
2022/03/20 04:07:50;;;;;;;14.20;12.57;;;;;;;-0.45;77.36;102399.56;5053215;28;20413;-74
2022/03/20 04:10:17;;;;;;;17.60;12.40;;;;;;;-0.44;77.00;102399.38;5053434;28;20183;-72
2022/03/20 04:12:43;;;;;;;14.07;11.80;;;;;;;-0.41;76.55;102398.19;5053141;28;20248;-73
2022/03/20 04:15:12;;;;;;;18.43;13.37;;;;;;;-0.42;76.19;102393.84;5053231;28;20236;-72
2022/03/20 04:17:39;;;;;;;20.87;13.10;;;;;;;-0.45;76.50;102383.44;5052839;28;20454;-72
2022/03/20 04:20:06;;;;;;;21.20;12.43;;;;;;;-0.45;76.42;102380.78;5052838;28;20910;-72
2022/03/20 04:22:35;;;;;;;17.10;11.80;;;;;;;-0.40;75.81;102389.09;5052850;28;20452;-72
2022/03/20 04:25:01;;;;;;;16.70;11.80;;;;;;;-0.36;76.22;102398.44;5052355;28;20971;-72
2022/03/20 04:27:28;;;;;;;14.50;10.43;;;;;;;-0.30;76.09;102398.47;5052092;28;20516;-73
2022/03/20 04:29:54;;;;;;;18.03;11.83;;;;;;;-0.22;75.75;102394.84;5052195;28;20188;-73
2022/03/20 04:32:19;;;;;;;15.40;12.40;;;;;;;-0.43;75.62;102384.13;5052107;28;20445;-79
2022/03/20 04:34:44;;;;;;;14.57;11.23;;;;;;;-0.55;75.44;102380.28;5052439;28;20175;-73
2022/03/20 04:37:11;;;;;;;18.30;12.33;;;;;;;-0.56;75.28;102382.13;5052156;28;20511;-73
2022/03/20 04:39:38;;;;;;;16.63;12.40;;;;;;;-0.62;75.87;102380.19;5052199;28;20179;-73
2022/03/20 04:42:05;;;;;;;12.93;11.37;;;;;;;-0.51;75.32;102381.53;5052141;28;20503;-73
2022/03/20 04:44:30;;;;;;;13.17;11.90;;;;;;;-0.50;75.03;102377.84;5052109;28;20466;-72
2022/03/20 04:46:56;;;;;;;17.27;12.13;;;;;;;-0.41;74.47;102376.69;5051807;28;20195;-72
2022/03/20 05:00:09;;;;;;;14.53;10.20;;;;;;;-0.22;71.78;102391.34;5051558;28;20903;-72
2022/03/20 05:02:35;;;;;;;12.47;9.60;;;;;;;-0.21;72.27;102393.84;5051741;28;20171;-75
2022/03/20 05:05:00;;;;;;;13.50;10.03;;;;;;;-0.40;73.28;102389.09;5051582;28;20187;-72
2022/03/20 05:07:26;;;;;;;13.23;10.13;;;;;;;-0.53;74.27;102397.84;5051720;28;20422;-73
2022/03/20 05:15:18;;;;;;;19.00;11.80;;;;;;;-0.51;75.19;102393.09;5051739;28;20444;-73
2022/03/20 05:17:44;;;;;;;14.67;11.27;;;;;;;-0.64;75.01;102392.97;5050940;28;20418;-73
2022/03/20 05:20:10;;;;;;;20.20;14.40;;;;;;;-0.75;75.15;102378.16;5051045;28;20175;-76
2022/03/20 05:22:39;;;;;;;19.73;11.83;;;;;;;-0.91;75.52;102375.72;5051375;28;20191;-73
2022/03/20 05:25:08;;;;;;;13.47;11.13;;;;;;;-0.89;74.97;102373.66;5051295;28;20410;-72
2022/03/20 05:27:34;;;;;;;14.40;12.00;;;;;;;-0.86;74.48;102367.94;5050682;28;20432;-74
2022/03/20 05:29:59;;;;;;;20.37;13.23;;;;;;;-0.95;75.11;102361.03;5051546;28;20422;-73
2022/03/20 05:32:25;;;;;;;14.33;12.40;;;;;;;-1.02;75.56;102350.19;5051442;28;20207;-72
2022/03/20 05:34:51;;;;;;;17.07;12.50;;;;;;;-0.97;75.52;102341.59;5050695;28;20233;-72
2022/03/20 05:37:16;;;;;;;19.40;11.63;;;;;;;-0.96;75.02;102345.94;5050486;28;20175;-72
2022/03/20 05:39:42;;;;;;;17.77;13.57;;;;;;;-0.80;74.54;102344.88;5050613;28;20181;-72
2022/03/20 05:42:07;;;;;;;14.03;11.17;;;;;;;-0.64;72.75;102345.47;5050852;28;20207;-72
2022/03/20 05:44:33;;;;;;;15.30;10.40;;;;;;;-0.31;71.09;102358.41;5050521;28;20179;-72
2022/03/20 05:47:00;;;;;;;19.90;13.47;;;;;;;-0.21;69.66;102358.09;5050269;28;20177;-72
2022/03/20 05:49:26;;;;;;;15.43;11.60;;;;;;;-0.12;69.15;102365.00;5050525;28;20426;-72
2022/03/20 05:51:54;;;;;;;20.43;13.00;;;;;;;-0.06;68.11;102364.22;5050415;28;20563;-72
2022/03/20 05:54:20;;;;;;;15.37;13.57;;;;;;;0.03;67.72;102363.06;5050297;28;20206;-72
2022/03/20 05:59:30;;;;;;;15.67;10.73;;;;;;;0.16;67.00;102360.47;5050614;28;20688;-72
2022/03/20 06:01:56;;;;;;;16.90;11.33;;;;;;;0.17;66.67;102356.75;5050322;28;20418;-72
2022/03/20 06:04:22;;;;;;;15.43;10.43;;;;;;;0.20;66.75;102360.91;5050286;28;20210;-72
2022/03/20 06:06:48;;;;;;;18.40;11.57;;;;;;;0.29;66.05;102368.66;5050655;28;20851;-72
2022/03/20 06:09:14;;;;;;;14.50;12.83;;;;;;;0.35;66.18;102371.56;5050299;28;20179;-72
2022/03/20 06:11:40;;;;;;;19.30;11.33;;;;;;;0.38;66.27;102377.38;5050244;28;20440;-72
2022/03/20 06:14:06;;;;;;;14.97;12.17;;;;;;;0.46;66.18;102379.94;5050063;28;20469;-72
2022/03/20 06:16:32;;;;;;;13.07;11.17;;;;;;;0.56;64.83;102391.16;5050191;28;20631;-72
2022/03/20 06:18:58;;;;;;;16.23;10.57;;;;;;;0.64;64.01;102383.97;5048241;28;20944;-73
2022/03/20 06:21:24;;;;;;;11.50;9.60;;;;;;;0.67;63.86;102386.25;5048284;28;20221;-74
2022/03/20 06:23:54;;;;;;;15.50;10.80;;;;;;;0.73;64.20;102380.09;5050624;28;20585;-72
2022/03/20 06:26:19;;;;;;;15.47;11.90;;;;;;;0.76;63.30;102388.59;5051199;28;20159;-72
2022/03/20 06:28:48;;;;;;;14.77;10.57;;;;;;;0.79;63.31;102398.13;5052468;28;20540;-73
2022/03/20 06:31:16;;;;;;;15.90;11.93;;;;;;;0.83;63.67;102402.06;5054697;28;20576;-73
2022/03/20 06:33:45;;;;;;;14.10;12.60;;;;;;;0.85;63.36;102408.91;5054585;28;20508;-72
2022/03/20 06:36:11;;;;;;;13.60;10.27;;;;;;;0.92;62.97;102408.13;5054719;28;20175;-71
2022/03/20 06:38:38;;;;;;;14.50;10.83;;;;;;;0.98;62.84;102402.78;5054491;28;20167;-75
2022/03/20 06:41:04;;;;;;;16.37;10.63;;;;;;;1.02;62.76;102398.66;5054626;28;20586;-73
2022/03/20 06:43:29;;;;;;;14.77;13.23;;;;;;;1.07;62.32;102387.28;5054555;28;20885;-73
2022/03/20 06:45:56;;;;;;;17.47;12.10;;;;;;;1.10;62.17;102393.09;5054469;28;20167;-72
2022/03/20 06:48:22;;;;;;;14.77;11.13;;;;;;;1.15;62.20;102396.00;5054411;28;20182;-76
2022/03/20 06:50:47;;;;;;;13.47;11.10;;;;;;;1.22;61.90;102400.59;5054332;28;20413;-72
2022/03/20 06:53:12;;;;;;;15.77;12.47;;;;;;;1.24;61.45;102399.38;5054274;28;20248;-72
2022/03/20 06:55:39;;;;;;;12.07;8.80;;;;;;;1.28;61.29;102411.38;5054183;28;20167;-72
2022/03/20 06:58:04;;;;;;;13.47;12.07;;;;;;;1.34;61.45;102410.59;5053418;28;20171;-73
2022/03/20 07:00:30;;;;;;;13.00;10.23;;;;;;;1.41;61.56;102418.69;5053874;28;20179;-72
2022/03/20 07:02:58;;;;;;;13.43;11.53;;;;;;;1.43;61.85;102422.00;5053653;28;20167;-72
2022/03/20 07:05:24;;;;;;;10.77;9.07;;;;;;;1.48;61.69;102433.84;5053550;28;20414;-73
2022/03/20 07:07:50;;;;;;;16.53;11.10;;;;;;;1.48;61.37;102430.34;5053275;28;20593;-72
2022/03/20 07:10:15;;;;;;;16.07;12.40;;;;;;;1.53;61.62;102435.94;5035616;28;20171;-71
2022/03/20 07:12:41;;;;;;;17.37;11.63;;;;;;;1.59;61.91;102445.91;5053208;28;20205;-72
2022/03/20 07:15:06;;;;;;;14.70;11.40;;;;;;;1.62;61.44;102445.50;5035441;28;20397;-73
2022/03/20 07:17:36;;;;;;;15.40;11.40;;;;;;;1.64;61.56;102448.81;5053124;28;20167;-72
2022/03/20 07:20:02;;;;;;;14.53;10.60;;;;;;;1.72;61.26;102448.63;5053201;28;20195;-75
2022/03/20 07:22:28;;;;;;;13.20;9.87;;;;;;;1.78;61.17;102438.91;5053368;28;20221;-75
2022/03/20 07:24:53;;;;;;;19.30;12.87;;;;;;;1.77;61.18;102439.94;5053202;28;20831;-73
2022/03/20 07:30:04;;;;;;;11.83;10.20;;;;;;;1.89;61.14;102430.25;5053166;28;20190;-72
2022/03/20 07:32:29;;;;;;;12.90;11.60;;;;;;;1.95;60.80;102428.56;5052943;28;20651;-73
2022/03/20 07:34:54;;;;;;;16.73;12.60;;;;;;;1.97;60.26;102435.41;5052999;28;20183;-73
2022/03/20 07:37:20;;;;;;;15.47;12.83;;;;;;;2.04;60.69;102433.56;5052779;28;20190;-73
2022/03/20 07:39:50;;;;;;;14.40;11.07;;;;;;;2.13;60.51;102428.78;5052260;28;20191;-73
2022/03/20 07:42:18;;;;;;;16.60;11.57;;;;;;;2.11;60.42;102424.66;5052942;28;20179;-72
2022/03/20 07:44:43;;;;;;;16.50;12.60;;;;;;;2.25;60.38;102426.31;5053002;28;20414;-72
2022/03/20 07:47:17;;;;;;;19.30;12.20;;;;;;;2.35;60.31;102432.97;5052636;28;20199;-73
2022/03/20 07:49:43;;;;;;;13.77;12.43;;;;;;;2.33;59.76;102421.56;5052866;28;20710;-72
2022/03/20 07:52:09;;;;;;;11.97;10.57;;;;;;;2.41;59.30;102419.69;5052601;28;20334;-72
2022/03/20 07:54:36;;;;;;;20.80;15.57;;;;;;;2.42;59.49;102411.38;5052640;28;20171;-73
2022/03/20 07:57:03;;;;;;;18.60;12.53;;;;;;;2.53;59.70;102409.91;5052356;28;20260;-72
2022/03/20 07:59:28;;;;;;;14.00;11.83;;;;;;;2.58;59.44;102412.81;5052634;28;20648;-72
2022/03/20 08:01:53;;;;;;;21.20;13.67;;;;;;;2.65;59.17;102408.25;5052616;28;20257;-72
2022/03/20 08:04:19;;;;;;;15.10;12.10;;;;;;;2.72;59.20;102409.06;5052823;28;20317;-72
2022/03/20 08:06:45;;;;;;;13.53;10.47;;;;;;;2.80;59.40;102408.84;5052527;28;20175;-72
2022/03/20 08:09:10;;;;;;;14.17;11.27;;;;;;;2.93;59.30;102411.50;5052617;28;20182;-73
2022/03/20 08:11:35;;;;;;;16.40;14.80;;;;;;;3.01;59.35;102396.09;5052480;28;20191;-73
2022/03/20 08:14:07;;;;;;;14.57;12.47;;;;;;;3.08;58.84;102402.31;5052769;28;20211;-72
2022/03/20 08:16:35;;;;;;;17.10;13.43;;;;;;;3.09;58.53;102402.09;5051723;28;20179;-72
2022/03/20 08:19:00;;;;;;;15.03;11.63;;;;;;;3.14;59.02;102405.00;5049462;28;20187;-72
2022/03/20 08:21:25;;;;;;;16.80;13.00;;;;;;;3.31;59.15;102407.19;5052663;28;20187;-73
2022/03/20 08:23:50;;;;;;;15.47;11.57;;;;;;;3.32;58.62;102396.19;5052637;28;20198;-72
2022/03/20 08:26:17;;;;;;;19.10;12.33;;;;;;;3.42;58.35;102401.13;5052416;28;20183;-72
2022/03/20 08:28:42;;;;;;;19.13;15.30;;;;;;;3.51;58.62;102400.69;5052801;28;20183;-72
2022/03/20 08:31:08;;;;;;;16.50;11.57;;;;;;;3.61;58.31;102391.25;5034723;28;20179;-72
2022/03/20 08:33:35;;;;;;;13.67;11.63;;;;;;;3.67;58.04;102380.41;5052268;28;20697;-75
2022/03/20 08:36:01;;;;;;;18.07;11.53;;;;;;;3.80;58.54;102383.03;5052257;28;20175;-73
2022/03/20 08:38:27;;;;;;;15.77;12.80;;;;;;;3.70;57.52;102369.16;5052033;28;20266;-71
2022/03/20 08:40:52;;;;;;;17.00;13.17;;;;;;;3.92;57.39;102377.75;5052539;28;20199;-70
2022/03/20 08:43:18;;;;;;;19.10;12.13;;;;;;;3.99;56.93;102380.41;5052543;28;20202;-71
2022/03/20 08:45:44;;;;;;;14.23;12.77;;;;;;;4.15;57.15;102386.09;5052057;28;20167;-71
2022/03/20 08:48:10;;;;;;;16.23;13.57;;;;;;;4.18;56.48;102369.41;5052193;28;20623;-71
2022/03/20 08:50:36;;;;;;;15.57;12.80;;;;;;;4.35;56.91;102379.69;5051245;28;20709;-71
2022/03/20 08:53:02;;;;;;;19.93;12.70;;;;;;;4.39;56.37;102378.19;5052209;28;20233;-70
2022/03/20 08:55:27;;;;;;;21.40;12.13;;;;;;;4.44;56.33;102367.53;5052261;28;20203;-71
2022/03/20 08:57:54;;;;;;;16.93;13.40;;;;;;;4.58;56.62;102370.91;5051811;28;20633;-71
2022/03/20 09:00:22;;;;;;;13.53;10.43;;;;;;;4.67;55.77;102377.72;5052172;28;20175;-74
2022/03/20 09:02:49;;;;;;;13.90;12.00;;;;;;;4.77;56.21;102368.03;5051716;28;20266;-73
2022/03/20 09:05:15;;;;;;;14.60;13.13;;;;;;;4.73;55.91;102361.38;5052037;28;20185;-78
2022/03/20 09:07:45;;;;;;;18.10;12.47;;;;;;;4.86;55.75;102348.75;5051944;28;20278;-71
2022/03/20 09:10:14;;;;;;;12.77;11.47;;;;;;;4.97;55.69;102367.78;5051723;28;20171;-71
2022/03/20 09:12:40;;;;;;;16.30;14.53;;;;;;;5.09;55.54;102348.91;5051595;28;20288;-71
2022/03/20 09:15:12;;;;;;;15.37;10.83;;;;;;;5.11;55.00;102341.38;5051687;28;20183;-71
2022/03/20 09:20:22;;;;;;;18.90;12.47;;;;;;;5.27;54.61;102346.16;5051470;28;20190;-71
2022/03/20 09:22:48;;;;;;;16.73;14.53;;;;;;;5.33;54.46;102345.22;5051347;28;20171;-70
2022/03/20 09:25:13;;;;;;;17.10;13.03;;;;;;;5.56;54.75;102346.38;5051673;28;20535;-71
2022/03/20 09:27:39;;;;;;;17.10;12.80;;;;;;;5.58;53.77;102327.97;5050970;28;20175;-71
2022/03/20 09:30:05;;;;;;;14.87;13.37;;;;;;;5.72;53.69;102340.28;5051639;28;20185;-71
2022/03/20 09:32:30;;;;;;;19.77;13.73;;;;;;;5.91;53.99;102346.47;5051205;28;20206;-71
2022/03/20 09:34:55;;;;;;;14.30;12.77;;;;;;;5.90;53.22;102342.13;5051205;28;20175;-71
2022/03/20 09:37:21;;;;;;;16.17;14.47;;;;;;;5.96;53.20;102350.16;5051059;28;20229;-71
2022/03/20 09:39:46;;;;;;;13.90;11.40;;;;;;;5.95;52.80;102340.38;5051118;28;20198;-71
2022/03/20 09:42:12;;;;;;;18.13;14.63;;;;;;;6.15;53.06;102352.78;5050733;28;20536;-71
2022/03/20 09:44:38;;;;;;;15.73;14.13;;;;;;;6.22;52.17;102351.59;5050641;28;20171;-72
2022/03/20 09:47:08;;;;;;;18.67;16.03;;;;;;;6.30;52.04;102342.28;5050241;28;20221;-71
2022/03/20 09:49:35;;;;;;;17.27;14.50;;;;;;;6.53;52.33;102360.47;5049171;28;20208;-71
2022/03/20 09:52:01;;;;;;;17.07;14.17;;;;;;;6.49;51.24;102341.06;5031339;28;20418;-71
2022/03/20 09:54:26;;;;;;;19.07;11.83;;;;;;;6.54;51.11;102354.78;5050743;28;20207;-70
2022/03/20 09:56:52;;;;;;;17.73;12.13;;;;;;;6.66;51.13;102345.81;5049403;28;20659;-71
2022/03/20 09:59:17;;;;;;;16.07;14.33;;;;;;;6.95;51.44;102346.69;5050853;28;20233;-70
2022/03/20 10:01:43;;;;;;;18.70;13.17;;;;;;;7.02;50.67;102356.34;5050632;28;20513;-71
2022/03/20 10:04:13;;;;;;;15.30;13.40;;;;;;;7.31;50.74;102349.03;5050688;28;20654;-71
2022/03/20 10:06:40;;;;;;;16.03;13.50;;;;;;;7.39;49.33;102326.91;5051168;28;20182;-71
2022/03/20 10:09:12;;;;;;;14.73;12.40;;;;;;;7.58;49.25;102343.03;5050613;28;20540;-71
2022/03/20 10:11:48;;;;;;;14.17;11.83;;;;;;;7.69;48.00;102339.41;5050742;28;20635;-71
2022/03/20 10:14:17;;;;;;;16.00;13.47;;;;;;;7.82;48.13;102321.97;5050442;28;20222;-72
2022/03/20 10:16:42;;;;;;;13.33;11.20;;;;;;;7.62;48.13;102312.34;5050442;28;20172;-71
2022/03/20 10:19:23;;;;;;;14.73;13.33;;;;;;;7.70;47.34;102300.25;5050196;28;20167;-71
2022/03/20 10:21:57;;;;;;;13.30;11.13;;;;;;;7.94;47.00;102279.97;5050653;28;20381;-71
2022/03/20 10:24:24;;;;;;;12.33;11.17;;;;;;;7.91;46.35;102312.28;5051160;28;20198;-71
2022/03/20 10:27:05;;;;;;;12.40;11.30;;;;;;;7.92;45.75;102292.16;5050386;28;20171;-71
2022/03/20 10:29:36;;;;;;;13.13;11.67;;;;;;;8.09;46.46;102273.91;5050034;28;20279;-74
2022/03/20 10:32:07;;;;;;;13.80;11.73;;;;;;;8.00;46.27;102287.16;5050447;28;20711;-71
2022/03/20 10:34:47;;;;;;;13.83;12.53;;;;;;;8.01;45.91;102275.19;5050380;28;20187;-71
2022/03/20 10:37:13;;;;;;;13.83;11.70;;;;;;;8.17;46.56;102262.63;5049821;28;20432;-71
2022/03/20 10:39:41;;;;;;;21.73;12.53;;;;;;;8.33;45.65;102280.00;5043312;28;20537;-71
2022/03/20 10:42:11;;;;;;;16.57;12.73;;;;;;;8.53;45.65;102279.47;5048951;28;20233;-71
2022/03/20 10:44:38;;;;;;;12.33;9.73;;;;;;;8.44;45.53;102270.94;5043753;28;20202;-71
2022/03/20 10:47:09;;;;;;;13.57;12.30;;;;;;;8.55;45.79;102245.47;5040643;28;20182;-72
2022/03/20 10:49:35;;;;;;;13.63;11.47;;;;;;;8.67;45.62;102267.13;5050423;28;20168;-71
2022/03/20 10:52:09;;;;;;;12.77;10.87;;;;;;;8.64;44.67;102249.38;5050124;28;20190;-71
2022/03/20 10:54:43;;;;;;;13.40;11.93;;;;;;;8.71;44.14;102253.81;5050158;28;20218;-71
2022/03/20 10:57:11;;;;;;;22.27;11.53;;;;;;;8.77;43.54;102269.97;5049487;28;20175;-71
2022/03/20 10:59:38;;;;;;;10.50;9.50;;;;;;;8.79;43.77;102253.38;5049296;28;20171;-72
2022/03/20 11:02:05;;;;;;;11.50;10.33;;;;;;;8.83;43.65;102249.88;5049360;28;20209;-71
2022/03/20 11:04:32;;;;;;;14.40;12.87;;;;;;;9.01;44.13;102259.63;5032031;28;20584;-70
2022/03/20 11:07:00;;;;;;;13.07;11.80;;;;;;;9.06;43.30;102246.03;5049495;28;20180;-71
2022/03/20 11:09:27;;;;;;;13.30;12.03;;;;;;;9.19;43.92;102248.34;5049703;28;20175;-71
2022/03/20 11:11:59;;;;;;;12.83;11.53;;;;;;;9.40;42.68;102234.91;5049748;28;20175;-71
2022/03/20 11:14:27;;;;;;;11.37;10.20;;;;;;;9.45;42.01;102243.16;5033139;28;20209;-72
2022/03/20 11:17:06;;;;;;;14.03;11.27;;;;;;;9.52;42.16;102257.38;5053202;28;20679;-71
2022/03/20 11:19:34;;;;;;;12.67;11.37;;;;;;;9.56;42.27;102265.91;5053206;28;20174;-71
2022/03/20 11:22:06;;;;;;;12.33;10.57;;;;;;;9.46;41.45;102221.06;5053232;28;20703;-71
2022/03/20 11:24:32;;;;;;;12.63;11.43;;;;;;;9.54;41.99;102214.28;5053327;28;20581;-71
2022/03/20 11:27:01;;;;;;;15.27;11.90;;;;;;;9.54;41.39;102204.19;5052925;28;20636;-71
2022/03/20 11:29:29;;;;;;;11.63;10.50;;;;;;;9.65;41.93;102218.75;5053010;28;20191;-71
2022/03/20 11:31:57;;;;;;;10.70;9.70;;;;;;;9.70;41.60;102204.34;5053152;28;20202;-71
2022/03/20 11:34:24;;;;;;;12.17;10.43;;;;;;;9.89;42.32;102232.03;5052937;28;20214;-72
2022/03/20 11:37:10;;;;;;;12.70;10.67;;;;;;;9.95;41.37;102245.44;5052934;28;20175;-71
2022/03/20 11:39:37;;;;;;;12.33;11.03;;;;;;;10.06;41.07;102227.22;5053054;28;20309;-71
2022/03/20 11:42:22;;;;;;;13.43;11.00;;;;;;;10.26;41.36;102226.53;5053019;28;20261;-71